Time;durP1;ratioP1;P1;durP2;ratioP2;P2;SDS_P1;SDS_P2;PMS_P1;PMS_P2;Temp;Humidity;BMP_temperature;BMP_pressure;BME280_temperature;BME280_humidity;BME280_pressure;Samples;Min_cycle;Max_cycle;Signal;HPM_P1;HPM_P2
2022/06/19 00:02:07;;;;;;;3.80;2.30;;;;;;;25.48;48.33;101272.29;107177;1282;72587;-83
2022/06/19 00:04:33;;;;;;;2.80;2.00;;;;;;;25.48;48.10;101272.25;107227;1283;62003;-83
2022/06/19 00:06:58;;;;;;;4.20;2.40;;;;;;;25.48;48.30;101269.80;107246;1283;62031;-83
2022/06/19 00:09:25;;;;;;;4.80;2.40;;;;;;;25.48;48.31;101270.31;106696;1283;62098;-84
2022/06/19 00:11:52;;;;;;;3.20;2.30;;;;;;;25.48;48.35;101273.36;106815;1284;62124;-86
2022/06/19 00:14:18;;;;;;;3.90;2.50;;;;;;;25.47;48.18;101270.89;106881;1283;62130;-84
2022/06/19 00:16:44;;;;;;;3.70;2.80;;;;;;;25.48;48.39;101271.41;107153;1283;62156;-84
2022/06/19 00:19:09;;;;;;;3.50;2.50;;;;;;;25.48;48.16;101272.48;106891;1284;59450;-83
2022/06/19 00:21:35;;;;;;;4.70;2.40;;;;;;;25.48;48.24;101275.38;106737;1283;62093;-84
2022/06/19 00:24:01;;;;;;;3.60;2.50;;;;;;;25.48;48.12;101274.48;107232;1281;72698;-83
2022/06/19 00:26:26;;;;;;;3.90;2.50;;;;;;;25.48;48.29;101277.91;107238;1281;62196;-83
2022/06/19 00:28:52;;;;;;;4.70;2.40;;;;;;;25.47;48.21;101272.34;107290;1281;62139;-84
2022/06/19 00:31:18;;;;;;;3.80;2.30;;;;;;;25.47;48.14;101270.20;107252;1281;61960;-84
2022/06/19 00:33:44;;;;;;;4.00;2.60;;;;;;;25.47;48.18;101274.13;107204;1282;62208;-83
2022/06/19 00:36:10;;;;;;;2.80;2.10;;;;;;;25.47;48.25;101271.66;107217;1283;62168;-84
2022/06/19 00:38:36;;;;;;;4.50;2.30;;;;;;;25.47;48.38;101273.27;106965;1281;62021;-84
2022/06/19 00:41:02;;;;;;;3.60;2.40;;;;;;;25.47;48.30;101273.84;107239;1281;61924;-84
2022/06/19 00:43:28;;;;;;;3.90;2.50;;;;;;;25.47;48.13;101273.84;106840;1283;62205;-84
2022/06/19 00:45:54;;;;;;;3.90;2.50;;;;;;;25.46;48.21;101274.03;107072;1281;62175;-85
2022/06/19 00:48:29;;;;;;;3.10;2.20;;;;;;;25.47;48.36;101272.02;107107;1281;62027;-83
2022/06/19 00:50:59;;;;;;;3.10;2.30;;;;;;;25.46;48.39;101269.17;107074;1281;62030;-84
2022/06/19 00:53:58;;;;;;;3.50;2.20;;;;;;;25.46;48.27;101271.70;107091;1281;61967;-83
2022/06/19 00:56:25;;;;;;;3.60;2.40;;;;;;;25.46;48.33;101267.77;106081;1290;73907;-84
2022/06/19 00:58:51;;;;;;;2.90;2.10;;;;;;;25.46;48.30;101273.55;106141;1289;76786;-84
2022/06/19 01:01:18;;;;;;;2.80;2.00;;;;;;;25.46;48.40;101273.91;106049;1289;63958;-84
2022/06/19 01:03:48;;;;;;;3.80;2.30;;;;;;;25.46;48.29;101274.06;106054;1289;62044;-83
2022/06/19 01:06:13;;;;;;;3.40;2.40;;;;;;;25.46;48.49;101276.61;106281;1289;72762;-83
2022/06/19 01:08:39;;;;;;;4.20;2.20;;;;;;;25.45;48.48;101279.17;106064;1289;62195;-84
2022/06/19 01:11:05;;;;;;;3.70;2.50;;;;;;;25.46;48.24;101275.90;106070;1289;62103;-84
2022/06/19 01:13:31;;;;;;;4.40;2.60;;;;;;;25.46;48.46;101280.80;106058;1289;62208;-83
2022/06/19 01:15:56;;;;;;;3.60;2.30;;;;;;;25.46;48.29;101280.05;106129;1289;62065;-84
2022/06/19 01:18:22;;;;;;;3.60;2.30;;;;;;;25.45;48.25;101281.70;106287;1289;62069;-83
2022/06/19 01:20:48;;;;;;;4.90;2.50;;;;;;;25.45;48.29;101278.28;105735;1290;75416;-84
2022/06/19 01:23:26;;;;;;;3.40;2.20;;;;;;;25.45;48.51;101282.80;106259;1289;62138;-81
2022/06/19 01:25:52;;;;;;;3.90;2.30;;;;;;;25.45;48.40;101281.18;106254;1289;62085;-83
2022/06/19 01:31:05;;;;;;;3.90;2.60;;;;;;;25.45;48.41;101283.55;106230;1289;75509;-83
2022/06/19 01:33:53;;;;;;;3.30;2.10;;;;;;;25.44;48.43;101284.48;107063;1281;60049;-83
2022/06/19 01:36:20;;;;;;;3.20;2.20;;;;;;;25.44;48.19;101279.85;106968;1283;63491;-87
2022/06/19 01:38:48;;;;;;;3.20;2.40;;;;;;;25.44;48.33;101285.75;107206;1283;73223;-86
2022/06/19 01:41:21;;;;;;;3.70;2.50;;;;;;;25.44;48.50;101283.45;106952;1283;76838;-83
2022/06/19 01:43:47;;;;;;;4.00;2.50;;;;;;;25.44;48.32;101288.67;107220;1283;62085;-83
2022/06/19 01:46:15;;;;;;;3.80;2.20;;;;;;;25.44;48.26;101287.55;106923;1283;61909;-84
2022/06/19 01:48:40;;;;;;;3.60;2.30;;;;;;;25.43;48.28;101284.73;107181;1283;72976;-83
2022/06/19 01:51:06;;;;;;;4.20;2.50;;;;;;;25.43;48.39;101290.84;107119;1283;62111;-83
2022/06/19 01:53:34;;;;;;;4.60;2.40;;;;;;;25.44;48.23;101289.57;107232;1283;62075;-83
2022/06/19 01:56:00;;;;;;;3.20;2.10;;;;;;;25.43;48.44;101291.02;107120;1283;61967;-83
2022/06/19 01:58:27;;;;;;;4.10;2.40;;;;;;;25.42;48.35;101284.08;107085;1283;62095;-83
2022/06/19 02:00:52;;;;;;;3.40;2.30;;;;;;;25.43;48.53;101288.19;106805;1283;61962;-84
2022/06/19 02:03:36;;;;;;;3.50;2.30;;;;;;;25.43;48.36;101292.70;106911;1283;62203;-83
2022/06/19 02:06:02;;;;;;;3.20;2.30;;;;;;;25.42;48.39;101293.63;107211;1283;62045;-83
2022/06/19 02:08:27;;;;;;;3.50;2.20;;;;;;;25.42;48.55;101292.95;106856;1283;62599;-83
2022/06/19 02:10:53;;;;;;;4.20;2.40;;;;;;;25.42;48.39;101299.03;106662;1283;62065;-84
2022/06/19 02:13:19;;;;;;;3.10;2.20;;;;;;;25.43;48.30;101295.97;107298;1281;62162;-83
2022/06/19 02:15:46;;;;;;;4.00;2.40;;;;;;;25.42;48.50;101291.86;106863;1283;62186;-83
2022/06/19 02:18:16;;;;;;;3.50;2.40;;;;;;;25.42;48.38;101291.68;107063;1281;62052;-82
2022/06/19 02:20:42;;;;;;;4.00;2.30;;;;;;;25.42;48.42;101290.78;107023;1283;75616;-85
2022/06/19 02:23:08;;;;;;;4.00;2.20;;;;;;;25.41;48.42;101291.00;107228;1283;62209;-83
2022/06/19 02:25:35;;;;;;;3.50;2.40;;;;;;;25.42;48.38;101290.42;107247;1281;62068;-81
2022/06/19 02:28:01;;;;;;;3.40;2.40;;;;;;;25.42;48.42;101292.60;107064;1281;62063;-83
2022/06/19 02:30:27;;;;;;;2.80;2.10;;;;;;;25.41;48.37;101294.25;107046;1283;62005;-83
2022/06/19 02:32:53;;;;;;;3.40;2.40;;;;;;;25.42;48.45;101294.78;106901;1281;62293;-84
2022/06/19 02:35:23;;;;;;;3.50;2.40;;;;;;;25.41;48.33;101293.73;107232;1281;62056;-84
2022/06/19 02:37:51;;;;;;;4.20;2.50;;;;;;;25.41;48.40;101295.69;107214;1281;72779;-83
2022/06/19 02:40:49;;;;;;;3.10;2.40;;;;;;;25.41;48.36;101296.42;107201;1281;75659;-83
2022/06/19 02:43:18;;;;;;;4.00;2.50;;;;;;;25.41;48.41;101297.90;107225;1283;62076;-84
2022/06/19 02:45:44;;;;;;;3.20;2.30;;;;;;;25.41;48.31;101294.66;106938;1283;61950;-84
2022/06/19 02:48:22;;;;;;;3.00;2.30;;;;;;;25.40;48.42;101297.73;107235;1283;62064;-84
2022/06/19 02:50:48;;;;;;;3.70;2.30;;;;;;;25.41;48.56;101300.24;106975;1283;75454;-84
2022/06/19 02:53:15;;;;;;;3.10;2.30;;;;;;;25.40;48.34;101301.71;106826;1283;63948;-84
2022/06/19 02:55:41;;;;;;;3.50;2.20;;;;;;;25.41;48.30;101305.27;107019;1281;62065;-84
2022/06/19 02:58:07;;;;;;;4.50;2.50;;;;;;;25.41;48.26;101309.05;106949;1283;62065;-83
2022/06/19 03:00:33;;;;;;;4.30;2.30;;;;;;;25.41;48.39;101310.14;106813;1283;62051;-83
2022/06/19 03:03:03;;;;;;;3.50;2.30;;;;;;;25.41;48.29;101309.42;106938;1283;62097;-84
2022/06/19 03:05:29;;;;;;;3.50;2.40;;;;;;;25.41;48.42;101311.20;107056;1283;61407;-83
2022/06/19 03:07:55;;;;;;;3.40;2.40;;;;;;;25.41;48.43;101308.15;107230;1283;72655;-83
2022/06/19 03:10:21;;;;;;;3.90;2.30;;;;;;;25.41;48.46;101312.11;106868;1283;62009;-83
2022/06/19 03:12:46;;;;;;;4.40;2.40;;;;;;;25.41;48.29;101313.02;106780;1283;62541;-83
2022/06/19 03:15:13;;;;;;;3.40;2.30;;;;;;;25.41;48.36;101311.77;106633;1283;62120;-83
2022/06/19 03:17:39;;;;;;;3.30;2.30;;;;;;;25.41;48.41;101315.89;106932;1281;62282;-83
2022/06/19 03:20:05;;;;;;;3.60;2.50;;;;;;;25.41;48.29;101317.16;106965;1281;62170;-84
2022/06/19 03:22:31;;;;;;;4.40;2.60;;;;;;;25.41;48.37;101319.51;107131;1281;62159;-83
2022/06/19 03:24:57;;;;;;;6.30;2.70;;;;;;;25.41;48.40;101321.30;107065;1282;62291;-83
2022/06/19 03:27:22;;;;;;;3.80;2.30;;;;;;;25.41;48.35;101325.79;107059;1283;62078;-85
2022/06/19 03:29:48;;;;;;;3.40;2.40;;;;;;;25.41;48.42;101325.63;106983;1283;63148;-85
2022/06/19 03:32:14;;;;;;;5.70;2.60;;;;;;;25.41;48.48;101329.38;106993;1283;62087;-84
2022/06/19 03:34:40;;;;;;;3.70;2.40;;;;;;;25.41;48.31;101326.50;107095;1281;62188;-83
2022/06/19 03:37:06;;;;;;;4.10;2.50;;;;;;;25.41;48.32;101325.42;107039;1281;62220;-83
2022/06/19 03:39:32;;;;;;;3.60;2.30;;;;;;;25.41;48.31;101329.20;107011;1281;62098;-82
2022/06/19 03:41:58;;;;;;;5.30;2.40;;;;;;;25.41;48.29;101326.34;106905;1283;63007;-83
2022/06/19 03:44:23;;;;;;;4.40;2.50;;;;;;;25.41;48.42;101323.66;106955;1281;62589;-83
2022/06/19 03:46:49;;;;;;;4.50;2.50;;;;;;;25.42;48.49;101324.66;107226;1281;62152;-85
2022/06/19 03:49:15;;;;;;;3.80;2.60;;;;;;;25.41;48.50;101321.83;107137;1281;62130;-84
2022/06/19 03:51:40;;;;;;;3.90;2.50;;;;;;;25.42;48.36;101326.29;107223;1281;62086;-85
2022/06/19 03:54:08;;;;;;;4.00;2.50;;;;;;;25.41;48.38;101324.52;106970;1283;62169;-85
2022/06/19 03:56:33;;;;;;;3.50;2.30;;;;;;;25.41;48.41;101325.95;107062;1283;62080;-85
2022/06/19 03:58:59;;;;;;;3.80;2.60;;;;;;;25.42;48.41;101322.52;106862;1283;62106;-83
2022/06/19 04:01:28;;;;;;;4.10;2.60;;;;;;;25.42;48.44;101324.66;106859;1285;62102;-84
2022/06/19 04:03:55;;;;;;;4.10;2.60;;;;;;;25.42;48.20;101325.37;107088;1283;62079;-83
2022/06/19 04:06:23;;;;;;;4.00;2.50;;;;;;;25.41;48.39;101322.18;106937;1283;61953;-84
2022/06/19 04:08:49;;;;;;;3.90;2.40;;;;;;;25.41;48.40;101324.34;107016;1281;61869;-83
2022/06/19 04:11:15;;;;;;;3.60;2.40;;;;;;;25.42;48.28;101326.48;106970;1281;62074;-83
2022/06/19 04:13:41;;;;;;;3.40;2.40;;;;;;;25.41;48.42;101326.87;107050;1283;62017;-84
2022/06/19 04:16:16;;;;;;;4.00;2.50;;;;;;;25.41;48.33;101329.73;106981;1281;62039;-86
2022/06/19 04:18:42;;;;;;;3.60;2.40;;;;;;;25.42;48.30;101329.90;107113;1281;61947;-83
2022/06/19 04:21:15;;;;;;;3.90;2.60;;;;;;;25.42;48.44;101330.22;107062;1281;62350;-83
2022/06/19 04:23:42;;;;;;;4.50;2.60;;;;;;;25.42;48.41;101331.13;106976;1283;75469;-85
2022/06/19 04:26:12;;;;;;;4.50;2.50;;;;;;;25.42;48.17;101329.84;106964;1283;62120;-84
2022/06/19 04:28:38;;;;;;;3.50;2.30;;;;;;;25.43;48.45;101330.90;106730;1281;62139;-83
2022/06/19 04:31:04;;;;;;;6.50;2.50;;;;;;;25.43;48.20;101329.82;106749;1281;62129;-83
2022/06/19 04:33:30;;;;;;;4.00;2.40;;;;;;;25.43;48.51;101329.08;106950;1283;62153;-83
2022/06/19 04:35:56;;;;;;;3.50;2.40;;;;;;;25.44;48.22;101328.10;106897;1283;62544;-83
2022/06/19 04:38:21;;;;;;;4.20;2.60;;;;;;;25.46;48.38;101327.06;106970;1283;62057;-83
2022/06/19 04:40:47;;;;;;;2.90;2.30;;;;;;;25.47;48.23;101325.53;106680;1283;62076;-82
2022/06/19 04:43:13;;;;;;;4.40;2.50;;;;;;;25.48;48.14;101326.89;106802;1283;62206;-85
2022/06/19 04:45:39;;;;;;;3.90;2.50;;;;;;;25.50;48.38;101324.57;106790;1283;76583;-83
2022/06/19 04:48:05;;;;;;;4.40;2.40;;;;;;;25.51;48.14;101326.30;106372;1284;62114;-82
2022/06/19 04:50:31;;;;;;;3.60;2.40;;;;;;;25.53;48.17;101325.05;107080;1281;62075;-81
2022/06/19 04:52:57;;;;;;;4.80;2.60;;;;;;;25.54;48.27;101327.98;106680;1283;62059;-83
2022/06/19 04:55:23;;;;;;;4.00;2.50;;;;;;;25.56;48.33;101329.67;106858;1281;62049;-82
2022/06/19 04:57:48;;;;;;;3.70;2.60;;;;;;;25.57;48.27;101330.12;106891;1283;62138;-83
2022/06/19 05:00:15;;;;;;;3.70;2.40;;;;;;;25.58;48.06;101328.04;106615;1283;62154;-83
2022/06/19 05:02:41;;;;;;;4.00;2.50;;;;;;;25.59;48.21;101327.77;106905;1283;62174;-83
2022/06/19 05:05:07;;;;;;;4.70;2.70;;;;;;;25.60;48.33;101328.04;106652;1283;60778;-83
2022/06/19 05:07:33;;;;;;;4.80;2.30;;;;;;;25.61;48.26;101326.17;106925;1283;62067;-83
2022/06/19 05:09:59;;;;;;;4.00;2.40;;;;;;;25.62;48.17;101326.46;106634;1283;61959;-84
2022/06/19 05:12:26;;;;;;;3.30;2.30;;;;;;;25.63;47.97;101329.64;106886;1283;62053;-84
2022/06/19 05:14:53;;;;;;;3.50;2.40;;;;;;;25.63;47.96;101331.04;106884;1283;62095;-83
2022/06/19 05:17:19;;;;;;;3.80;2.30;;;;;;;25.64;47.90;101331.20;106650;1283;61912;-83
2022/06/19 05:19:45;;;;;;;3.90;2.40;;;;;;;25.64;47.81;101328.98;106881;1283;62058;-80
2022/06/19 05:22:11;;;;;;;4.00;2.40;;;;;;;25.65;47.81;101331.05;106897;1283;62114;-83
2022/06/19 05:24:37;;;;;;;3.90;2.30;;;;;;;25.66;47.78;101336.58;106927;1283;59787;-83
2022/06/19 05:27:12;;;;;;;3.40;2.40;;;;;;;25.67;47.80;101334.02;107217;1283;61951;-86
2022/06/19 05:29:38;;;;;;;3.30;2.20;;;;;;;25.68;47.84;101329.23;106635;1283;61833;-83
2022/06/19 05:32:04;;;;;;;3.70;2.40;;;;;;;25.68;47.69;101331.52;106489;1283;62038;-83
2022/06/19 05:34:34;;;;;;;3.90;2.50;;;;;;;25.69;47.80;101329.33;106917;1283;62199;-84
2022/06/19 05:37:00;;;;;;;3.50;2.60;;;;;;;25.70;47.59;101331.23;106623;1283;75619;-83
2022/06/19 05:39:26;;;;;;;3.40;2.40;;;;;;;25.70;47.65;101330.61;107083;1283;62178;-84
2022/06/19 05:41:57;;;;;;;4.60;2.50;;;;;;;25.71;47.65;101328.00;107181;1283;62225;-83
2022/06/19 05:44:26;;;;;;;4.10;2.50;;;;;;;25.72;47.62;101326.36;106948;1281;72550;-84
2022/06/19 05:46:53;;;;;;;5.00;2.60;;;;;;;25.73;47.68;101328.08;106951;1283;75540;-84
2022/06/19 05:49:19;;;;;;;3.70;2.40;;;;;;;25.73;47.59;101324.98;107238;1283;61880;-83
2022/06/19 05:51:44;;;;;;;3.70;2.30;;;;;;;25.75;47.50;101327.75;107241;1283;62059;-83
2022/06/19 05:54:10;;;;;;;4.30;2.20;;;;;;;25.75;47.66;101326.64;107003;1283;62227;-83
2022/06/19 05:56:36;;;;;;;3.50;2.50;;;;;;;25.75;47.65;101326.25;107137;1283;62013;-86
2022/06/19 05:59:01;;;;;;;3.90;2.30;;;;;;;25.76;47.74;101323.10;107188;1281;62969;-84
2022/06/19 06:01:28;;;;;;;4.00;2.50;;;;;;;25.77;47.61;101324.85;106726;1283;62073;-83
2022/06/19 06:03:54;;;;;;;3.70;2.60;;;;;;;25.79;47.33;101326.73;107078;1281;62117;-83
2022/06/19 06:06:25;;;;;;;4.30;2.70;;;;;;;25.79;47.55;101328.13;107229;1283;62059;-85
2022/06/19 06:08:51;;;;;;;4.20;2.40;;;;;;;25.80;47.61;101329.52;106832;1283;75668;-83
2022/06/19 06:11:17;;;;;;;3.40;2.40;;;;;;;25.80;47.56;101327.86;106775;1283;62050;-83
2022/06/19 06:13:43;;;;;;;4.00;2.40;;;;;;;25.81;47.56;101328.17;106720;1283;62064;-84
2022/06/19 06:16:12;;;;;;;3.80;2.50;;;;;;;25.81;47.47;101331.39;106202;1286;878647;-83
2022/06/19 06:18:38;;;;;;;3.70;2.50;;;;;;;25.82;47.32;101331.13;107034;1283;75508;-83
2022/06/19 06:21:06;;;;;;;3.80;2.40;;;;;;;25.82;47.39;101329.84;107167;1281;62792;-83
2022/06/19 06:23:31;;;;;;;3.40;2.40;;;;;;;25.83;47.52;101331.95;107233;1282;61974;-83
2022/06/19 06:26:01;;;;;;;3.60;2.50;;;;;;;25.83;47.60;101333.92;107151;1281;62741;-83
2022/06/19 06:28:27;;;;;;;4.50;2.60;;;;;;;25.83;47.25;101332.48;106945;1283;75324;-83
2022/06/19 06:30:52;;;;;;;3.60;2.50;;;;;;;25.84;47.38;101334.20;107069;1283;62077;-84
2022/06/19 06:33:18;;;;;;;3.70;2.30;;;;;;;25.84;47.33;101335.80;106878;1283;62047;-83
2022/06/19 06:35:44;;;;;;;4.80;2.30;;;;;;;25.84;47.25;101337.56;106906;1283;62082;-83
2022/06/19 06:38:09;;;;;;;4.30;2.40;;;;;;;25.85;47.32;101339.73;107000;1283;62076;-84
2022/06/19 06:40:35;;;;;;;3.60;2.50;;;;;;;25.85;47.47;101335.33;106953;1283;62928;-83
2022/06/19 06:43:01;;;;;;;3.10;2.20;;;;;;;25.85;47.24;101334.79;107005;1283;62112;-84
2022/06/19 06:45:26;;;;;;;3.50;2.50;;;;;;;25.85;47.29;101330.46;106902;1283;62107;-85
2022/06/19 06:47:52;;;;;;;4.30;2.50;;;;;;;25.85;47.15;101331.91;107211;1283;62103;-82
2022/06/19 06:50:18;;;;;;;4.20;2.50;;;;;;;25.86;47.12;101329.53;107223;1283;62024;-83
2022/06/19 06:52:43;;;;;;;4.80;2.60;;;;;;;25.86;47.19;101327.53;107232;1283;62198;-83
2022/06/19 06:55:09;;;;;;;3.40;2.20;;;;;;;25.86;47.09;101323.04;107293;1283;62046;-83
2022/06/19 06:57:35;;;;;;;3.70;2.50;;;;;;;25.86;47.35;101328.09;107242;1283;61968;-84
2022/06/19 07:00:01;;;;;;;3.50;2.40;;;;;;;25.86;47.09;101326.63;107230;1283;62206;-84
2022/06/19 07:02:26;;;;;;;3.50;2.30;;;;;;;25.86;47.02;101327.14;106941;1283;62232;-84
2022/06/19 07:04:52;;;;;;;3.40;2.40;;;;;;;25.86;47.22;101327.35;106929;1283;62118;-84
2022/06/19 07:07:18;;;;;;;3.90;2.50;;;;;;;25.86;47.09;101328.08;106868;1283;62152;-83
2022/06/19 07:09:44;;;;;;;4.70;2.50;;;;;;;25.86;47.27;101325.88;106973;1281;62077;-84
2022/06/19 07:12:10;;;;;;;4.10;2.40;;;;;;;25.86;47.06;101322.86;106931;1281;73701;-83
2022/06/19 07:14:36;;;;;;;3.40;2.10;;;;;;;25.86;47.14;101323.52;107009;1283;75787;-83
2022/06/19 07:17:02;;;;;;;3.20;2.30;;;;;;;25.86;47.14;101323.36;107072;1283;62054;-83
2022/06/19 07:19:28;;;;;;;4.50;2.50;;;;;;;25.86;47.12;101327.54;106932;1283;62167;-83
2022/06/19 07:21:54;;;;;;;4.30;2.60;;;;;;;25.86;47.07;101323.75;106933;1283;62052;-83
2022/06/19 07:24:20;;;;;;;3.30;2.20;;;;;;;25.86;47.04;101322.84;107204;1282;62042;-84
2022/06/19 07:26:46;;;;;;;3.40;2.30;;;;;;;25.86;46.95;101322.46;107195;1281;60917;-84
2022/06/19 07:29:12;;;;;;;3.20;2.10;;;;;;;25.86;47.06;101315.27;106991;1281;62043;-83
2022/06/19 07:31:37;;;;;;;3.50;2.40;;;;;;;25.86;47.09;101312.03;106804;1281;62095;-83
2022/06/19 07:34:04;;;;;;;3.90;2.50;;;;;;;25.86;47.09;101311.12;107217;1283;72633;-84
2022/06/19 07:36:30;;;;;;;3.90;2.40;;;;;;;25.86;47.01;101309.29;107247;1281;75582;-84
2022/06/19 07:38:56;;;;;;;3.80;2.40;;;;;;;25.86;47.05;101305.52;106955;1281;62072;-84
2022/06/19 07:41:21;;;;;;;3.60;2.10;;;;;;;25.86;46.98;101306.77;107228;1283;61914;-84
2022/06/19 07:43:50;;;;;;;4.00;2.50;;;;;;;25.86;47.11;101302.42;106783;1283;62066;-84
2022/06/19 07:46:18;;;;;;;3.40;2.20;;;;;;;25.87;47.12;101296.11;106988;1283;75563;-84
2022/06/19 07:51:28;;;;;;;3.80;2.40;;;;;;;25.86;47.18;101293.59;106989;1283;62107;-86
2022/06/19 07:53:53;;;;;;;4.70;2.70;;;;;;;25.86;47.15;101292.58;106919;1283;62126;-84
2022/06/19 07:56:19;;;;;;;3.40;2.40;;;;;;;25.87;47.14;101291.79;106923;1283;63092;-83
2022/06/19 07:58:45;;;;;;;3.10;2.30;;;;;;;25.86;47.19;101291.48;106894;1283;62066;-83
2022/06/19 08:01:10;;;;;;;3.60;2.20;;;;;;;25.86;47.07;101289.81;106943;1283;61078;-84
2022/06/19 08:03:36;;;;;;;3.50;2.40;;;;;;;25.86;47.01;101287.49;106961;1283;62180;-84
2022/06/19 08:06:02;;;;;;;3.10;2.30;;;;;;;25.87;46.99;101285.30;107017;1282;72666;-84
2022/06/19 08:08:28;;;;;;;3.30;2.30;;;;;;;25.87;46.86;101290.33;106930;1283;59922;-84
2022/06/19 08:10:55;;;;;;;3.90;2.30;;;;;;;25.87;47.04;101286.36;106980;1283;62047;-84
2022/06/19 08:13:22;;;;;;;3.00;2.20;;;;;;;25.87;47.04;101286.92;106947;1283;62061;-83
2022/06/19 08:15:49;;;;;;;3.80;2.30;;;;;;;25.87;46.91;101282.60;106590;1284;61929;-87
2022/06/19 08:18:15;;;;;;;4.40;2.30;;;;;;;25.86;47.13;101285.84;107028;1282;75763;-85
2022/06/19 08:20:41;;;;;;;3.70;2.40;;;;;;;25.87;46.87;101285.81;107220;1283;62141;-84
2022/06/19 08:23:06;;;;;;;4.90;2.40;;;;;;;25.87;46.96;101287.63;107014;1283;62126;-84
2022/06/19 08:25:32;;;;;;;3.60;2.30;;;;;;;25.86;46.82;101286.91;106903;1283;62104;-83
2022/06/19 08:27:57;;;;;;;3.50;2.30;;;;;;;25.86;46.76;101278.49;107246;1281;62104;-83
2022/06/19 08:30:43;;;;;;;2.70;2.10;;;;;;;25.86;46.90;101278.46;107267;1281;62104;-83
2022/06/19 08:33:10;;;;;;;4.10;2.50;;;;;;;25.86;46.98;101280.28;107042;1281;62052;-82
2022/06/19 08:35:39;;;;;;;4.30;2.20;;;;;;;25.87;46.84;101276.28;106844;1283;61964;-83
2022/06/19 08:38:06;;;;;;;3.90;2.50;;;;;;;25.87;46.89;101269.95;106955;1283;73501;-86
2022/06/19 08:40:39;;;;;;;3.20;2.20;;;;;;;25.87;46.90;101272.83;106788;1281;76464;-81
2022/06/19 08:43:46;;;;;;;3.30;2.10;;;;;;;25.87;46.82;101271.69;107229;1281;62075;-85
2022/06/19 08:46:23;;;;;;;3.20;2.20;;;;;;;25.87;46.85;101262.03;106973;1281;62040;-83
2022/06/19 08:49:13;;;;;;;3.30;2.30;;;;;;;25.88;46.85;101266.80;107284;1281;72688;-84
2022/06/19 08:51:43;;;;;;;4.30;2.20;;;;;;;25.87;46.76;101262.70;107235;1283;75334;-83
2022/06/19 08:54:35;;;;;;;3.50;2.30;;;;;;;25.87;46.80;101254.38;106828;1283;63297;-84
2022/06/19 08:57:07;;;;;;;3.10;2.20;;;;;;;25.88;46.82;101250.55;106914;1283;62029;-84
2022/06/19 08:59:53;;;;;;;2.90;2.10;;;;;;;25.88;46.98;101252.00;106878;1283;73697;-83
2022/06/19 09:02:30;;;;;;;3.00;2.10;;;;;;;25.88;46.73;101248.79;107199;1283;74898;-83
2022/06/19 09:08:25;;;;;;;3.50;2.40;;;;;;;25.87;46.81;101251.50;107256;1281;61936;-84
2022/06/19 09:11:16;;;;;;;3.20;2.20;;;;;;;25.87;46.61;101242.36;107224;1281;74712;-82
2022/06/19 09:13:53;;;;;;;4.30;2.20;;;;;;;25.87;46.56;101239.28;106210;1287;75724;-83
2022/06/19 09:16:27;;;;;;;3.40;2.30;;;;;;;25.87;46.73;101240.55;106209;1289;63217;-84
2022/06/19 09:18:57;;;;;;;3.70;2.20;;;;;;;25.87;46.79;101237.29;106265;1289;61934;-86
2022/06/19 09:21:35;;;;;;;4.20;2.20;;;;;;;25.87;46.83;101241.09;106399;1289;73821;-83
2022/06/19 09:24:08;;;;;;;3.30;2.10;;;;;;;25.87;46.68;101233.35;106428;1289;76562;-83
2022/06/19 09:26:53;;;;;;;3.10;2.20;;;;;;;25.87;46.72;101229.77;106234;1288;62218;-83
2022/06/19 09:29:28;;;;;;;3.10;2.10;;;;;;;25.87;46.92;101230.81;106115;1289;62129;-83
2022/06/19 09:32:01;;;;;;;3.90;2.40;;;;;;;25.87;46.85;101230.46;106405;1289;73573;-83
2022/06/19 09:34:31;;;;;;;2.80;2.00;;;;;;;25.87;46.70;101229.55;106427;1289;75429;-83
2022/06/19 09:37:09;;;;;;;3.20;2.20;;;;;;;25.87;46.81;101230.46;106233;1289;62090;-83
2022/06/19 09:39:48;;;;;;;3.00;2.00;;;;;;;25.87;46.75;101232.08;106251;1289;61994;-83
2022/06/19 09:42:20;;;;;;;2.90;2.10;;;;;;;25.86;46.82;101228.35;106219;1289;72720;-83
2022/06/19 09:45:02;;;;;;;5.30;2.30;;;;;;;25.86;46.68;101226.16;106136;1289;77370;-83
2022/06/19 09:47:40;;;;;;;3.80;2.20;;;;;;;25.86;46.88;101219.67;106214;1289;62057;-84
2022/06/19 09:50:19;;;;;;;4.20;2.10;;;;;;;25.87;46.74;101220.20;106263;1283;62223;-83
2022/06/19 09:52:50;;;;;;;3.20;2.20;;;;;;;25.86;46.80;101217.73;107178;1283;74193;-82
2022/06/19 09:55:27;;;;;;;3.90;2.30;;;;;;;25.86;46.68;101213.02;106851;1283;76418;-82
2022/06/19 09:58:15;;;;;;;3.50;2.20;;;;;;;25.87;46.85;101210.27;107028;1282;61967;-82
2022/06/19 10:00:40;;;;;;;3.20;2.20;;;;;;;25.87;46.77;101211.73;106987;1283;61964;-81
2022/06/19 10:03:06;;;;;;;3.40;2.30;;;;;;;25.86;46.77;101208.86;106747;1284;62029;-83
2022/06/19 10:05:43;;;;;;;2.70;2.10;;;;;;;25.87;46.83;101202.51;107251;1281;62783;-84
2022/06/19 10:08:13;;;;;;;4.00;2.10;;;;;;;25.87;46.63;101201.58;107193;1282;60216;-84
2022/06/19 10:11:08;;;;;;;2.60;2.00;;;;;;;25.87;46.55;101199.58;107209;1282;61927;-83
2022/06/19 10:13:35;;;;;;;2.60;2.00;;;;;;;25.87;46.70;101193.69;107091;1283;72835;-84
2022/06/19 10:16:01;;;;;;;4.00;2.10;;;;;;;25.86;46.79;101190.11;107018;1283;75424;-84
2022/06/19 10:18:49;;;;;;;3.80;2.30;;;;;;;25.86;46.55;101191.39;106929;1283;62086;-82
2022/06/19 10:24:43;;;;;;;3.20;2.20;;;;;;;25.85;46.57;101194.39;107177;1283;72762;-84
2022/06/19 10:27:21;;;;;;;3.40;2.20;;;;;;;25.85;46.35;101193.67;106669;1283;74408;-83
2022/06/19 10:30:18;;;;;;;4.40;2.20;;;;;;;25.85;46.53;101189.91;107263;1283;62068;-84
2022/06/19 10:33:18;;;;;;;3.20;2.20;;;;;;;25.83;46.45;101186.61;107267;1283;62526;-83
2022/06/19 10:35:46;;;;;;;3.90;2.10;;;;;;;25.82;46.48;101183.43;107022;1283;73850;-84
2022/06/19 10:38:12;;;;;;;3.30;2.10;;;;;;;25.83;46.48;101183.04;107240;1281;75342;-83
2022/06/19 10:40:59;;;;;;;2.50;2.00;;;;;;;25.82;46.42;101178.26;107256;1281;62930;-84
2022/06/19 10:43:46;;;;;;;3.20;2.20;;;;;;;25.82;46.48;101182.23;107055;1282;60575;-84
2022/06/19 10:46:12;;;;;;;3.00;2.10;;;;;;;25.81;46.53;101181.89;107206;1283;73740;-85
2022/06/19 10:48:52;;;;;;;3.30;2.30;;;;;;;25.81;46.74;101179.20;106850;1283;62156;-83
2022/06/19 10:51:22;;;;;;;3.30;2.10;;;;;;;25.80;46.68;101180.34;106689;1283;61951;-82
2022/06/19 10:54:27;;;;;;;4.20;2.20;;;;;;;25.81;46.72;101179.77;106774;1283;61881;-82
2022/06/19 10:57:18;;;;;;;3.20;2.30;;;;;;;25.80;46.57;101176.04;106998;1283;72705;-83
2022/06/19 10:59:44;;;;;;;3.00;2.10;;;;;;;25.80;46.43;101177.64;107080;1281;76562;-83
2022/06/19 11:05:36;;;;;;;3.20;2.20;;;;;;;25.80;46.58;101174.61;106947;1281;61812;-83
2022/06/19 11:08:02;;;;;;;3.40;2.10;;;;;;;25.80;46.46;101173.34;107179;1283;73778;-82
2022/06/19 11:10:30;;;;;;;3.20;2.20;;;;;;;25.81;46.64;101170.27;106861;1283;62155;-83
2022/06/19 11:12:58;;;;;;;3.10;2.30;;;;;;;25.80;46.75;101168.85;107032;1283;61961;-83
2022/06/19 11:15:29;;;;;;;3.10;2.00;;;;;;;25.80;46.45;101170.64;106827;1283;62002;-83
2022/06/19 11:18:20;;;;;;;3.20;2.10;;;;;;;25.81;46.62;101170.61;106976;1283;72688;-83
2022/06/19 11:21:05;;;;;;;4.20;2.30;;;;;;;25.81;46.34;101163.04;107062;1282;75448;-82
2022/06/19 11:23:38;;;;;;;3.30;2.10;;;;;;;25.81;46.59;101161.39;107183;1281;61928;-82
2022/06/19 11:26:06;;;;;;;3.40;2.20;;;;;;;25.81;46.55;101162.10;106867;1283;62055;-83
2022/06/19 11:29:28;;;;;;;3.20;2.20;;;;;;;25.81;46.61;101160.28;107186;1282;73651;-83
2022/06/19 11:32:10;;;;;;;3.80;2.00;;;;;;;25.80;46.57;101161.45;106376;1287;76650;-82
2022/06/19 11:34:43;;;;;;;2.80;2.00;;;;;;;25.80;46.50;101161.42;106184;1289;61927;-84
2022/06/19 11:37:27;;;;;;;3.50;2.20;;;;;;;25.80;46.36;101159.83;106409;1287;61948;-83
2022/06/19 11:39:54;;;;;;;2.90;2.10;;;;;;;25.80;46.53;101158.05;106400;1287;72663;-83
2022/06/19 11:42:36;;;;;;;3.30;2.20;;;;;;;25.80;46.53;101158.42;106228;1289;76471;-83
2022/06/19 11:45:13;;;;;;;2.90;2.10;;;;;;;25.80;46.34;101159.33;106436;1287;62025;-84